KRDU

Raleigh-Durham International Airport

Raleigh/Durham, North Carolina, USA
METAR KRDU 170951Z 00000KT 10SM -RASN FEW045 BKN060 OVC090 02/M03 A3026 RMK AO2 RAB50SNB50 SLP247 P0000 T00221033
Observed Flight Rules
Jan-17 @ 09:51 UTC (47 minutes ago) Visual Flight Rules
Wind Visibility Clouds Conditions
Calm 10 miles
  • Few at 4,500' AGL
  • Broken at 6,000' AGL
  • Overcast at 9,000' AGL
  • Light Rain
  • Light Snow
Temperatures Readings Precipitation
Current 2°C / 36°F
Dewpoint -3°C / 27°F
Humidity 70%
Altimeter 30.26" Hg
Pressure 1024.7 hPa
Elevation 130
Current Rain 0.005
METAR KRDU 170951Z 00000KT 10SM -RASN FEW045 BKN060 OVC090 02/M03 A3026 RMK AO2 RAB50SNB50 SLP247 P0000 T00221033
Observed Flight Rules
Jan-17 @ 09:51 UTC
(47 minutes ago)
VFR
Wind Visibility
Calm 10 miles
Clouds
  • Few at 4,500' AGL
  • Broken at 6,000' AGL
  • Overcast at 9,000' AGL
Conditions
  • Light Rain
  • Light Snow
Temperature Dewpoint
2°C / 36°F -3°C / 27°F
Humidity Altimeter Pressure
70% 30.26" Hg 1024.7 hPa
Current Rain
0.005